TimeEST,TemperatureF,Dew PointF,Humidity,Sea Level PressureIn,VisibilityMPH,Wind Direction,Wind SpeedMPH,Gust SpeedMPH,PrecipitationIn,Events,Conditions,WindDirDegrees,DateUTC
12:53 AM,43.0,42.1,97,29.94,0.2,SE,6.9,-,N/A,Fog,Fog,130,2013-01-29 05:53:00
1:53 AM,46.0,44.1,93,29.89,0.2,SE,9.2,-,0.01,Fog,Fog,130,2013-01-29 06:53:00
2:53 AM,50.0,48.9,96,29.88,0.5,South,10.4,-,0.00,Fog-Rain-Thunderstorm,Light Rain,190,2013-01-29 07:53:00
3:08 AM,50.0,48.2,94,29.86,0.8,SW,4.6,-,0.02,Rain,Light Rain,230,2013-01-29 08:08:00
3:19 AM,50.0,48.2,94,29.85,0.5,SSW,6.9,-,0.02,Fog,Fog,200,2013-01-29 08:19:00
3:51 AM,51.8,50.0,94,29.84,0.8,South,11.5,-,0.02,,Overcast,190,2013-01-29 08:51:00
3:53 AM,51.1,50.0,96,29.84,0.8,South,12.7,-,0.02,,Overcast,190,2013-01-29 08:53:00
4:35 AM,53.6,51.8,94,29.81,1.0,South,16.1,-,N/A,,Overcast,190,2013-01-29 09:35:00
4:53 AM,54.0,52.0,93,29.80,1.2,South,17.3,27.6,N/A,,Overcast,190,2013-01-29 09:53:00
5:18 AM,53.6,53.6,100,29.80,2.0,South,20.7,26.5,N/A,,Overcast,190,2013-01-29 10:18:00
5:39 AM,53.6,53.6,100,29.78,3.0,South,16.1,25.3,N/A,,Overcast,190,2013-01-29 10:39:00
5:53 AM,55.0,53.1,93,29.79,3.0,South,20.7,26.5,N/A,,Overcast,190,2013-01-29 10:53:00
6:40 AM,55.4,53.6,94,29.79,2.5,SSW,20.7,26.5,0.02,Rain,Light Rain,200,2013-01-29 11:40:00
6:48 AM,55.4,51.8,88,29.79,4.0,SSW,16.1,29.9,0.03,Rain,Light Rain,200,2013-01-29 11:48:00
6:53 AM,55.0,52.0,89,29.80,4.0,SSW,17.3,29.9,0.03,Rain,Light Rain,200,2013-01-29 11:53:00
7:18 AM,55.4,51.8,88,29.79,2.5,SSW,16.1,-,0.01,Rain,Light Rain,210,2013-01-29 12:18:00
7:25 AM,55.4,51.8,88,29.79,3.0,SSW,19.6,-,0.01,Rain,Light Rain,200,2013-01-29 12:25:00
7:53 AM,55.0,52.0,89,29.79,4.0,SSW,18.4,-,0.01,,Overcast,200,2013-01-29 12:53:00
8:53 AM,55.0,53.1,93,29.79,4.0,SSW,15.0,-,N/A,,Overcast,200,2013-01-29 13:53:00
9:42 AM,55.4,53.6,94,29.77,2.5,SSW,17.3,24.2,0.01,Rain,Light Rain,200,2013-01-29 14:42:00
9:53 AM,55.9,54.0,93,29.78,2.0,South,18.4,-,0.02,Rain,Light Rain,190,2013-01-29 14:53:00
10:06 AM,55.4,53.6,94,29.79,2.0,SSW,17.3,25.3,0.02,Rain-Thunderstorm,Rain,210,2013-01-29 15:06:00
10:13 AM,55.4,53.6,94,29.79,0.8,SSW,16.1,-,0.07,Rain-Thunderstorm,Heavy Thunderstorms and Rain,210,2013-01-29 15:13:00
10:29 AM,55.4,53.6,94,29.78,1.2,SSW,15.0,25.3,0.14,Rain-Thunderstorm,Thunderstorms and Rain,200,2013-01-29 15:29:00
10:43 AM,55.4,53.6,94,29.77,2.0,South,13.8,-,0.17,Rain,Light Rain,190,2013-01-29 15:43:00
10:53 AM,57.0,54.0,89,29.78,3.0,South,19.6,24.2,0.17,Rain,Light Rain,190,2013-01-29 15:53:00
11:08 AM,57.2,53.6,88,29.77,2.0,South,17.3,24.2,0.00,,Overcast,190,2013-01-29 16:08:00
11:53 AM,57.0,54.0,89,29.77,2.5,SSW,16.1,24.2,0.00,Rain,Light Rain,200,2013-01-29 16:53:00
12:53 PM,57.0,54.0,89,29.74,2.5,SSW,13.8,-,0.00,,Overcast,200,2013-01-29 17:53:00
1:44 PM,57.2,53.6,88,29.69,3.0,South,17.3,25.3,N/A,,Overcast,190,2013-01-29 18:44:00
1:53 PM,57.9,54.0,87,29.70,3.0,South,16.1,24.2,N/A,,Overcast,190,2013-01-29 18:53:00
2:15 PM,57.2,53.6,88,29.68,3.0,South,15.0,24.2,0.01,Rain-Thunderstorm,Light Rain,190,2013-01-29 19:15:00
2:36 PM,57.2,53.6,88,29.67,4.0,South,16.1,-,0.01,,Overcast,190,2013-01-29 19:36:00
2:53 PM,57.9,54.0,87,29.68,2.5,South,18.4,25.3,0.03,Rain-Thunderstorm,Rain,190,2013-01-29 19:53:00
2:58 PM,-9999,-9999,N/A,-9999,-9999.0,North,-9999.0,-,0.03,Thunderstorm,Unknown,0,2013-01-29 19:58:00
3:13 PM,57.2,55.4,94,29.66,1.5,South,17.3,-,0.15,Rain-Thunderstorm,Light Thunderstorms and Rain,190,2013-01-29 20:13:00
3:18 PM,57.2,53.6,88,29.66,3.0,South,19.6,25.3,0.15,Rain-Thunderstorm,Light Rain,190,2013-01-29 20:18:00
3:26 PM,57.2,53.6,88,29.66,3.0,South,17.3,-,0.16,Rain,Light Rain,190,2013-01-29 20:26:00
3:34 PM,57.2,53.6,88,29.65,4.0,South,19.6,25.3,0.16,Rain,Light Rain,180,2013-01-29 20:34:00
3:48 PM,57.2,53.6,88,29.65,3.0,South,18.4,26.5,0.17,Rain,Light Rain,190,2013-01-29 20:48:00
3:53 PM,57.9,54.0,87,29.65,4.0,South,20.7,27.6,0.17,Rain,Light Rain,180,2013-01-29 20:53:00
4:51 PM,59.0,53.6,82,29.63,5.0,South,19.6,25.3,0.00,,Haze,190,2013-01-29 21:51:00
4:53 PM,59.0,54.0,83,29.64,5.0,South,19.6,-,0.00,,Haze,190,2013-01-29 21:53:00
5:27 PM,57.2,53.6,88,29.63,5.0,South,17.3,26.5,N/A,,Overcast,170,2013-01-29 22:27:00
5:53 PM,57.0,54.0,89,29.62,5.0,South,13.8,24.2,N/A,,Overcast,170,2013-01-29 22:53:00
6:21 PM,57.2,53.6,88,29.62,2.5,South,17.3,25.3,0.00,Rain,Light Rain,170,2013-01-29 23:21:00
6:29 PM,57.2,53.6,88,29.61,4.0,South,17.3,26.5,0.00,Rain,Light Rain,180,2013-01-29 23:29:00
6:53 PM,57.0,54.0,89,29.59,4.0,South,19.6,-,0.01,Rain-Thunderstorm,Light Rain,170,2013-01-29 23:53:00
7:21 PM,57.2,53.6,88,29.58,6.0,SSE,19.6,25.3,0.00,Thunderstorm,Overcast,160,2013-01-30 00:21:00
7:28 PM,57.2,53.6,88,29.57,6.0,SSE,16.1,27.6,0.00,,Overcast,160,2013-01-30 00:28:00
7:53 PM,57.9,53.1,84,29.56,6.0,SSE,18.4,28.8,0.00,,Haze,160,2013-01-30 00:53:00
8:45 PM,57.2,53.6,88,29.52,8.0,South,17.3,-,N/A,,Overcast,170,2013-01-30 01:45:00
8:53 PM,57.9,53.1,84,29.52,8.0,South,18.4,26.5,N/A,,Overcast,170,2013-01-30 01:53:00
9:51 PM,59.0,53.6,82,29.47,5.0,South,20.7,34.5,0.02,Rain-Thunderstorm,Light Rain,180,2013-01-30 02:51:00
9:53 PM,59.0,54.0,83,29.45,3.0,South,23.0,34.5,0.04,Rain-Thunderstorm,Heavy Rain,180,2013-01-30 02:53:00
10:18 PM,59.0,53.6,82,29.43,10.0,South,20.7,32.2,0.00,Thunderstorm,Overcast,180,2013-01-30 03:18:00
10:22 PM,59.0,53.6,82,29.43,10.0,South,25.3,32.2,0.00,,Overcast,180,2013-01-30 03:22:00
10:38 PM,59.0,55.4,88,29.42,5.0,South,21.9,36.8,0.02,Rain,Light Rain,180,2013-01-30 03:38:00
10:49 PM,59.0,55.4,88,29.44,2.5,SSW,17.3,28.8,0.07,Rain,Heavy Rain,210,2013-01-30 03:49:00
10:53 PM,59.0,55.0,87,29.44,2.0,SSW,16.1,26.5,0.10,Rain,Heavy Rain,210,2013-01-30 03:53:00
11:06 PM,59.0,55.4,88,29.42,5.0,South,17.3,25.3,0.03,Rain,Rain,180,2013-01-30 04:06:00
11:15 PM,59.0,55.4,88,29.42,4.0,South,18.4,25.3,0.05,Rain,Light Rain,190,2013-01-30 04:15:00
11:53 PM,57.9,55.0,90,29.39,8.0,WNW,15.0,-,0.05,,Overcast,300,2013-01-30 04:53:00